SBUG

Rubem Berta Airport

Uruguaiana, Brazil
TAF SBUG 251530Z 2518/2618 33006KT 9999 SCT025 TX32/2518Z TN19/2608Z PROB40 TEMPO 2520/2524 5000 SHRA BKN020 FEW025TCU RMK PEB
Issued Valid From Valid To
Apr-25 @ 15:30 UTC
(2 hours ago)
Apr-25 @ 18:00 UTC
(in 12 minutes)
Apr-26 @ 18:00 UTC
(in 24 hours)
Apr-25 @ 18:00 to Apr-26 @ 18:00
TAF SBUG 251530Z 2518/2618 33006KT 9999 SCT025 TX32/2518Z TN19/2608Z
Wind Visibility Clouds
330° at 6 knots 10,000+ meters
  • Scattered at 2,500' AGL
Temporary  (Probability 40%) Apr-25 @ 20:00 to Apr-26 @ 00:00
PROB40 TEMPO 2520/2524 5000 SHRA BKN020 FEW025TCU RMK PEB
Visibility Clouds Conditions
5,005 meters
  • Broken at 2,000' AGL
  • Few at 2,500' AGL
  • Rain
TAF SBUG 251530Z 2518/2618 33006KT 9999 SCT025 TX32/2518Z TN19/2608Z PROB40 TEMPO 2520/2524 5000 SHRA BKN020 FEW025TCU RMK PEB
Issued Apr-25 @ 15:30 UTC
(2 hours ago)
Valid From Apr-25 @ 18:00 UTC
(in 12 minutes)
Valid To Apr-26 @ 18:00 UTC
(in 24 hours)
Apr-25 @ 18:00 - Apr-26 @ 18:00
Wind Visibility
330° at 6 knots 10,000+ meters
Clouds
  • Scattered at 2,500' AGL
Probability 40% Temporary Apr-25 @ 20:00 - Apr-26 @ 00:00
Clouds
  • Broken at 2,000' AGL
  • Few at 2,500' AGL
Conditions
  • Rain